TAF LDPL 230525Z 2306/2406 06006KT CAVOK
                 TX18/2313Z TN10/2405Z
           BECMG 2308/2310 06013KT
           TEMPO 2321/2406 06015G25KT=
TAF LDPL 222325Z 2300/2400 06006KT CAVOK
                 TX18/2313Z TN10/2323Z
    PROB30 TEMPO 2300/2303 SHRA FEW030TCU
           BECMG 2308/2310 06013KT=
TAF LDPL 221725Z 2218/2318 09005KT 9999 SCT040
                 TX18/2312Z TN12/2304Z
    PROB30 TEMPO 2218/2300 4000 SHRA BKN010 FEW025TCU
           BECMG 2302/2304 06008KT
           BECMG 2308/2310 06014KT=
TAF LDPL 221125Z 2212/2312 22008KT 9999 BKN040
                 TX18/2212Z TN11/2304Z
    PROB30 TEMPO 2212/2300 4000 SHRA BKN010 FEW025TCU
           BECMG 2300/2302 06008KT
           BECMG 2307/2309 06014KT=
TAF LDPL 220525Z 2206/2306 18006KT 9999 BKN040
                 TX17/2213Z TN10/2304Z
    PROB40 TEMPO 2206/2214 RA BKN010
    PROB30 TEMPO 2208/2216 SHRA FEW025TCU BKN040
           BECMG 2300/2302 06008KT=
TAF LDPL 212325Z 2200/2300 18006KT 9999 BKN040
                 TX18/2200Z TN13/2223Z
    PROB40 TEMPO 2200/2206 BKN010
    PROB40 TEMPO 2206/2212 RA BKN010
    PROB30 TEMPO 2208/2216 SHRA FEW025TCU BKN040
    PROB30 TEMPO 2219/2300 1500 BCFG=